Time;durP1;ratioP1;P1;durP2;ratioP2;P2;SDS_P1;SDS_P2;PMS_P1;PMS_P2;Temp;Humidity;BMP_temperature;BMP_pressure;BME280_temperature;BME280_humidity;BME280_pressure;Samples;Min_cycle;Max_cycle;Signal;HPM_P1;HPM_P2
2023/07/10 00:00:40;;;;;;;;;;;;;;;27.03;34.82;100909.06;5056915;28;1210;-40
2023/07/10 00:03:09;;;;;;;;;;;;;;;27.16;34.65;100911.19;5056338;28;1090;-38
2023/07/10 00:05:35;;;;;;;;;;;;;;;26.92;35.20;100914.84;5056398;28;1123;-41
2023/07/10 00:08:00;;;;;;;;;;;;;;;27.05;34.97;100917.00;5056909;28;1182;-42
2023/07/10 00:10:26;;;;;;;;;;;;;;;26.34;34.67;100798.13;5056158;28;1039;-41
2023/07/10 00:12:51;;;;;;;;;;;;;;;26.90;35.06;100912.34;5072054;28;1000;-40
2023/07/10 00:15:20;;;;;;;;;;;;;;;26.96;34.60;100914.31;5056808;28;1071;-40
2023/07/10 00:17:46;;;;;;;;;;;;;;;27.12;35.03;100912.56;5056435;28;1063;-40
2023/07/10 00:20:13;;;;;;;;;;;;;;;26.73;35.27;100909.72;5056282;28;1126;-39
2023/07/10 00:22:38;;;;;;;;;;;;;;;27.09;34.89;100913.75;5055885;28;924;-40
2023/07/10 00:25:04;;;;;;;;;;;;;;;26.89;35.16;100916.88;5056289;28;1132;-40
2023/07/10 00:27:30;;;;;;;;;;;;;;;26.95;34.97;100909.09;5056220;28;1170;-40
2023/07/10 00:29:55;;;;;;;;;;;;;;;26.95;34.97;100915.34;5056530;28;1975;-40
2023/07/10 00:32:21;;;;;;;;;;;;;;;26.88;35.38;100914.34;5055785;28;1106;-40
2023/07/10 00:34:46;;;;;;;;;;;;;;;27.07;35.02;100915.81;5056189;28;1035;-39
2023/07/10 00:37:11;;;;;;;;;;;;;;;27.01;34.67;100901.16;5056356;28;1186;-39
2023/07/10 00:39:37;;;;;;;;;;;;;;;27.04;34.76;100901.81;5055190;28;1507;-39
2023/07/10 00:42:06;;;;;;;;;;;;;;;27.09;34.75;100902.13;5055761;28;1075;-40
2023/07/10 00:44:51;;;;;;;;;;;;;;;27.09;34.66;100902.94;5054912;28;1745;-41
2023/07/10 00:47:19;;;;;;;;;;;;;;;26.64;35.68;100905.41;5055097;28;1320;-40
2023/07/10 00:49:46;;;;;;;;;;;;;;;27.07;34.67;100902.31;5071257;28;1906;-38
2023/07/10 00:52:13;;;;;;;;;;;;;;;27.10;35.04;100903.81;5055601;28;1075;-40
2023/07/10 00:54:43;;;;;;;;;;;;;;;26.80;35.69;100901.75;5071769;28;1126;-40
2023/07/10 00:57:12;;;;;;;;;;;;;;;27.12;34.99;100897.22;5070955;28;1118;-41
2023/07/10 00:59:38;;;;;;;;;;;;;;;27.06;35.10;100906.00;5054662;28;1140;-41
2023/07/10 01:02:09;;;;;;;;;;;;;;;27.07;34.92;100901.47;5055990;28;1139;-40
2023/07/10 01:04:35;;;;;;;;;;;;;;;27.06;34.78;100902.50;5055769;28;1155;-41
2023/07/10 01:07:01;;;;;;;;;;;;;;;27.05;35.33;100906.19;5054913;28;1200;-40
2023/07/10 01:09:27;;;;;;;;;;;;;;;27.05;34.84;100900.78;5055602;28;1973;-40
2023/07/10 01:11:52;;;;;;;;;;;;;;;26.96;35.37;100908.09;5054142;28;1080;-40
2023/07/10 01:14:17;;;;;;;;;;;;;;;26.74;35.62;100900.59;5055268;28;1106;-39
2023/07/10 01:16:43;;;;;;;;;;;;;;;26.90;35.16;100898.84;5056048;28;1100;-39
2023/07/10 01:19:10;;;;;;;;;;;;;;;26.93;35.29;100903.03;5054294;28;1095;-41
2023/07/10 01:21:37;;;;;;;;;;;;;;;26.77;35.51;100902.97;5073034;28;884;-39
2023/07/10 01:24:03;;;;;;;;;;;;;;;26.97;35.13;100905.22;5059658;28;1165;-41
2023/07/10 01:26:29;;;;;;;;;;;;;;;27.00;35.05;100907.56;5059593;28;1143;-40
2023/07/10 01:28:55;;;;;;;;;;;;;;;26.97;35.02;100904.38;5058262;28;1905;-40
2023/07/10 01:31:21;;;;;;;;;;;;;;;27.14;34.82;100905.97;5060065;28;1234;-40
2023/07/10 01:33:48;;;;;;;;;;;;;;;26.67;35.44;100910.44;5074307;28;921;-40
2023/07/10 01:36:14;;;;;;;;;;;;;;;27.06;35.14;100916.81;5060030;28;1147;-40
2023/07/10 01:38:43;;;;;;;;;;;;;;;27.04;35.08;100916.19;5058572;28;1127;-40
2023/07/10 01:41:29;;;;;;;;;;;;;;;26.86;35.39;100911.03;5074954;28;1016;-40
2023/07/10 01:43:54;;;;;;;;;;;;;;;27.06;35.15;100924.91;5058781;28;1333;-40
2023/07/10 01:46:23;;;;;;;;;;;;;;;27.00;35.13;100921.06;5058073;28;1072;-40
2023/07/10 01:48:49;;;;;;;;;;;;;;;27.00;35.12;100917.50;5059234;28;1977;-40
2023/07/10 01:51:15;;;;;;;;;;;;;;;27.11;35.25;100913.59;5058298;28;1219;-39
2023/07/10 01:53:41;;;;;;;;;;;;;;;26.88;35.40;100911.66;5059362;28;992;-39
2023/07/10 01:56:07;;;;;;;;;;;;;;;26.97;35.61;100916.00;5058598;28;1058;-39
2023/07/10 01:58:33;;;;;;;;;;;;;;;27.08;35.34;100908.53;5074504;28;1239;-40
2023/07/10 02:01:00;;;;;;;;;;;;;;;26.90;35.71;100915.88;5058059;28;1282;-39
2023/07/10 02:03:26;;;;;;;;;;;;;;;26.99;35.05;100919.34;5057352;28;1191;-39
2023/07/10 02:05:51;;;;;;;;;;;;;;;27.00;35.37;100921.06;5074253;28;1104;-39
2023/07/10 02:08:17;;;;;;;;;;;;;;;26.97;35.12;100918.72;5058737;28;1967;-40
2023/07/10 02:10:42;;;;;;;;;;;;;;;27.03;35.12;100922.56;5058942;28;1035;-39
2023/07/10 02:13:08;;;;;;;;;;;;;;;27.17;35.30;100920.13;5074601;28;1102;-39
2023/07/10 02:15:33;;;;;;;;;;;;;;;27.03;35.39;100925.28;5058889;28;1182;-40
2023/07/10 02:17:59;;;;;;;;;;;;;;;27.11;35.08;100927.09;5058611;28;1039;-39
2023/07/10 02:20:24;;;;;;;;;;;;;;;27.07;35.21;100925.75;5058507;28;1094;-39
2023/07/10 02:22:50;;;;;;;;;;;;;;;27.07;34.86;100933.84;5058707;28;1082;-39
2023/07/10 02:25:16;;;;;;;;;;;;;;;27.09;35.43;100929.94;5073980;28;1465;-39
2023/07/10 02:27:41;;;;;;;;;;;;;;;27.05;35.42;100931.34;5058402;28;1284;-40
2023/07/10 02:30:07;;;;;;;;;;;;;;;26.97;35.29;100917.88;5058765;28;1914;-39
2023/07/10 02:32:33;;;;;;;;;;;;;;;26.95;35.71;100923.44;5057682;28;1162;-39
2023/07/10 02:34:58;;;;;;;;;;;;;;;26.79;35.51;100927.06;5058494;28;1027;-39
2023/07/10 02:37:24;;;;;;;;;;;;;;;27.03;35.17;100922.56;5058406;28;1107;-39
2023/07/10 02:39:49;;;;;;;;;;;;;;;26.96;35.50;100927.00;5058324;28;1165;-40
2023/07/10 02:42:15;;;;;;;;;;;;;;;26.98;35.55;100928.47;5057291;28;1174;-40
2023/07/10 02:44:40;;;;;;;;;;;;;;;27.08;35.09;100933.69;5058302;28;1115;-37
2023/07/10 02:47:06;;;;;;;;;;;;;;;26.92;35.81;100931.03;5056550;28;1146;-39
2023/07/10 02:49:31;;;;;;;;;;;;;;;27.01;35.21;100935.38;5058407;28;1898;-39
2023/07/10 02:51:57;;;;;;;;;;;;;;;26.86;36.01;100940.72;5056564;28;1176;-39
2023/07/10 02:54:22;;;;;;;;;;;;;;;26.71;35.82;100940.63;5058118;28;1043;-40
2023/07/10 02:56:48;;;;;;;;;;;;;;;26.82;35.71;100942.91;5056206;28;1341;-40
2023/07/10 02:59:13;;;;;;;;;;;;;;;26.98;35.55;100944.69;5056858;28;1190;-40
2023/07/10 03:01:39;;;;;;;;;;;;;;;26.88;35.23;100941.34;5057884;28;1167;-40
2023/07/10 03:04:05;;;;;;;;;;;;;;;26.80;35.75;100938.69;5073134;28;1075;-39
2023/07/10 03:06:31;;;;;;;;;;;;;;;26.55;35.73;100950.44;5057726;28;1091;-40
2023/07/10 03:08:58;;;;;;;;;;;;;;;26.87;35.54;100942.38;5057629;28;1910;-40
2023/07/10 03:11:23;;;;;;;;;;;;;;;27.01;35.36;100936.25;5057770;28;1241;-40
2023/07/10 03:13:49;;;;;;;;;;;;;;;27.02;35.39;100943.34;5057038;28;1143;-39
2023/07/10 03:16:15;;;;;;;;;;;;;;;26.99;35.35;100935.56;5056031;28;1214;-40
2023/07/10 03:18:40;;;;;;;;;;;;;;;26.48;34.58;100944.06;5057569;28;1098;-41
2023/07/10 03:21:06;;;;;;;;;;;;;;;26.25;34.88;100940.22;5056379;28;1088;-40
2023/07/10 03:23:31;;;;;;;;;;;;;;;26.06;34.47;100937.91;5056847;28;1111;-39
2023/07/10 03:25:57;;;;;;;;;;;;;;;25.84;35.43;100943.81;5041881;28;1321;-41
2023/07/10 03:28:23;;;;;;;;;;;;;;;25.49;36.06;100937.75;5045197;28;1983;-42
2023/07/10 03:30:48;;;;;;;;;;;;;;;25.66;35.74;100944.84;5057496;28;1086;-40
2023/07/10 03:33:15;;;;;;;;;;;;;;;25.65;35.38;100945.00;5057158;28;1143;-41
2023/07/10 03:35:40;;;;;;;;;;;;;;;25.59;35.32;100948.34;5057780;28;1123;-41
2023/07/10 03:38:06;;;;;;;;;;;;;;;25.51;35.26;100947.31;5057447;28;1219;-42
2023/07/10 03:40:31;;;;;;;;;;;;;;;25.58;35.49;100957.44;5056655;28;1431;-40
2023/07/10 03:42:57;;;;;;;;;;;;;;;25.83;36.96;100954.75;5057181;28;1170;-41
2023/07/10 03:45:22;;;;;;;;;;;;;;;25.43;36.63;100955.41;5055958;28;1094;-41
2023/07/10 03:47:48;;;;;;;;;;;;;;;25.28;36.53;100960.59;5057379;28;1155;-43
2023/07/10 03:50:13;;;;;;;;;;;;;;;25.50;35.96;100967.19;5056664;28;1902;-42
2023/07/10 03:52:39;;;;;;;;;;;;;;;26.04;35.85;100963.16;5056044;28;1266;-40
2023/07/10 03:55:05;;;;;;;;;;;;;;;26.41;34.98;100958.25;5054207;28;1310;-38
2023/07/10 03:57:30;;;;;;;;;;;;;;;26.63;35.38;100969.31;5055709;28;994;-39
2023/07/10 03:59:55;;;;;;;;;;;;;;;27.02;34.38;100958.69;5056981;28;1444;-40
2023/07/10 04:02:22;;;;;;;;;;;;;;;27.20;34.25;100971.06;5056878;28;1403;-39
2023/07/10 04:04:48;;;;;;;;;;;;;;;27.32;34.04;100972.38;5056521;28;1227;-40
2023/07/10 04:07:19;;;;;;;;;;;;;;;27.38;34.24;100978.91;5102869;27;1517447;-25
2023/07/10 04:09:44;;;;;;;;;;;;;;;27.32;34.12;100979.63;5123921;27;897;-28
2023/07/10 04:12:10;;;;;;;;;;;;;;;27.37;34.26;100975.38;5135308;27;1070;-28
2023/07/10 04:14:38;;;;;;;;;;;;;;;27.33;34.31;100975.88;5134695;27;1193;-29
2023/07/10 04:17:04;;;;;;;;;;;;;;;27.11;34.42;100986.50;5134210;27;1921;-30
2023/07/10 04:19:29;;;;;;;;;;;;;;;27.22;34.28;100990.66;5145012;27;973;-25
2023/07/10 04:21:55;;;;;;;;;;;;;;;27.42;34.17;100982.09;5139814;27;1148;-30
2023/07/10 04:24:20;;;;;;;;;;;;;;;27.57;34.07;100979.44;5135843;27;946;-24
2023/07/10 04:26:46;;;;;;;;;;;;;;;27.67;33.92;100977.34;5133721;27;1073;-26
2023/07/10 04:29:12;;;;;;;;;;;;;;;27.69;33.91;100978.03;5133822;27;1506;-27
2023/07/10 04:31:37;;;;;;;;;;;;;;;27.61;33.98;100973.50;5115756;28;1106;-40
2023/07/10 04:34:02;;;;;;;;;;;;;;;27.65;34.23;100976.69;5140415;27;1094;-41
2023/07/10 04:36:28;;;;;;;;;;;;;;;27.53;34.57;100980.84;5135584;27;1914;-40
2023/07/10 04:38:53;;;;;;;;;;;;;;;27.65;34.56;100973.13;5133525;27;1166;-41
2023/07/10 04:41:20;;;;;;;;;;;;;;;27.59;34.83;100972.81;5133286;27;1196;-40
2023/07/10 04:43:45;;;;;;;;;;;;;;;27.66;34.86;100977.53;5133473;27;991;-42
2023/07/10 04:46:11;;;;;;;;;;;;;;;27.50;35.46;100984.72;5140783;27;1079;-40
2023/07/10 04:48:37;;;;;;;;;;;;;;;27.15;36.14;100979.72;5138191;27;1073;-41
2023/07/10 04:51:03;;;;;;;;;;;;;;;27.26;35.59;100968.50;5133868;27;1150;-42
2023/07/10 04:53:29;;;;;;;;;;;;;;;26.99;35.70;100976.03;5133242;27;990;-41
2023/07/10 04:55:55;;;;;;;;;;;;;;;27.22;35.53;100974.44;5133861;27;1905;-41
2023/07/10 04:58:24;;;;;;;;;;;;;;;27.44;34.99;100975.50;5119248;27;1063;-41
2023/07/10 05:00:53;;;;;;;;;;;;;;;27.65;34.71;100973.97;5112025;28;1308;-41
2023/07/10 05:03:18;;;;;;;;;;;;;;;27.50;34.79;100972.06;5112516;28;1348;-42
2023/07/10 05:06:10;;;;;;;;;;;;;;;27.69;34.09;100964.53;5112707;28;1340;-41
2023/07/10 05:08:35;;;;;;;;;;;;;;;27.87;33.79;100966.06;5124138;27;1305;-41
2023/07/10 05:11:01;;;;;;;;;;;;;;;27.93;34.13;100969.88;5135696;27;895;-42
2023/07/10 05:13:27;;;;;;;;;;;;;;;27.94;34.16;100961.59;5133348;27;1221;-43
2023/07/10 05:15:52;;;;;;;;;;;;;;;27.97;33.79;100963.94;5133141;27;1980;-42
2023/07/10 05:18:18;;;;;;;;;;;;;;;27.92;34.07;100962.78;5122443;27;1102;-42
2023/07/10 05:20:44;;;;;;;;;;;;;;;28.01;33.92;100966.28;5119490;28;1063;-43
2023/07/10 05:23:09;;;;;;;;;;;;;;;27.99;33.96;100964.56;5111330;27;1078;-42
2023/07/10 05:25:35;;;;;;;;;;;;;;;28.03;33.39;100962.34;5119337;28;1233;-42
2023/07/10 05:28:01;;;;;;;;;;;;;;;28.01;33.48;100969.78;5119256;28;1124;-40
2023/07/10 05:30:27;;;;;;;;;;;;;;;28.06;33.60;100974.69;5119556;28;1217;-42
2023/07/10 05:32:52;;;;;;;;;;;;;;;28.07;33.79;100976.34;5106570;28;1521;-42
2023/07/10 05:35:18;;;;;;;;;;;;;;;27.95;33.98;100976.78;5100934;27;1909;-42
2023/07/10 05:37:43;;;;;;;;;;;;;;;27.89;33.93;100977.53;5097616;28;1815;-43
2023/07/10 05:40:09;;;;;;;;;;;;;;;27.79;34.06;100980.50;5098233;28;1387;-42
2023/07/10 05:42:34;;;;;;;;;;;;;;;27.94;34.30;100979.69;5097830;28;1237;-42
2023/07/10 05:45:00;;;;;;;;;;;;;;;27.92;34.52;100985.28;5097621;28;1315;-42
2023/07/10 05:47:25;;;;;;;;;;;;;;;27.94;34.44;100979.69;5121657;27;1205;-42
2023/07/10 05:49:51;;;;;;;;;;;;;;;28.12;33.98;100987.44;5118421;28;1026;-44
2023/07/10 05:52:16;;;;;;;;;;;;;;;28.16;33.54;100983.34;5118765;28;1154;-44
2023/07/10 05:54:42;;;;;;;;;;;;;;;28.11;33.58;100978.50;5119005;28;1116;-44
2023/07/10 05:57:07;;;;;;;;;;;;;;;28.16;33.71;100990.63;5112652;28;1909;-43
2023/07/10 05:59:33;;;;;;;;;;;;;;;28.24;33.81;100983.25;5114501;27;876;-45
2023/07/10 06:01:58;;;;;;;;;;;;;;;28.08;33.82;100986.13;5115833;28;1212;-43
2023/07/10 06:04:24;;;;;;;;;;;;;;;28.37;33.05;100979.09;5118827;28;1241;-43
2023/07/10 06:06:49;;;;;;;;;;;;;;;28.26;33.24;100983.06;5118085;28;1042;-44
2023/07/10 06:09:15;;;;;;;;;;;;;;;28.22;33.45;100979.91;5118025;28;1085;-44
2023/07/10 06:11:40;;;;;;;;;;;;;;;28.53;34.16;100983.50;5120465;27;861;-35
2023/07/10 06:16:00;;;;;;;;;;;;;;;28.55;33.52;100980.59;5093951;27;1701;-28
2023/07/10 06:18:26;;;;;;;;;;;;;;;28.21;34.11;100972.00;5092655;28;1333;-26
2023/07/10 06:20:52;;;;;;;;;;;;;;;28.85;32.94;100986.84;5093666;28;1022;-44
2023/07/10 06:23:17;;;;;;;;;;;;;;;28.95;32.47;100974.84;5093128;28;1047;-44
2023/07/10 06:25:44;;;;;;;;;;;;;;;29.07;32.24;100975.22;5090029;28;1068;-44
2023/07/10 06:28:09;;;;;;;;;;;;;;;28.82;32.87;100968.25;5088824;28;1001;-46
2023/07/10 06:30:39;;;;;;;;;;;;;;;29.17;31.99;100966.78;5093335;28;1054;-44
2023/07/10 06:34:55;;;;;;;;;;;;;;;28.78;32.62;100964.25;5106226;27;1322;-42
2023/07/10 06:37:21;;;;;;;;;;;;;;;28.84;32.08;100957.25;5082309;28;953;-29
2023/07/10 06:40:02;;;;;;;;;;;;;;;28.84;32.20;100966.19;5073588;28;1066;-29
2023/07/10 06:42:28;;;;;;;;;;;;;;;29.04;31.90;100965.63;5081550;28;1185;-28
2023/07/10 06:44:53;;;;;;;;;;;;;;;29.06;32.07;100957.31;5085426;28;1311;-31
2023/07/10 06:47:19;;;;;;;;;;;;;;;29.06;31.44;100963.56;5078640;28;1233;-30
2023/07/10 06:49:44;;;;;;;;;;;;;;;29.03;31.45;100955.81;5088264;28;1458;-28
2023/07/10 06:52:10;;;;;;;;;;;;;;;28.90;31.62;100950.22;5087847;28;1288;-31
2023/07/10 06:54:35;;;;;;;;;;;;;;;28.91;31.65;100949.19;5087535;28;1917;-30
2023/07/10 06:57:01;;;;;;;;;;;;;;;28.94;31.87;100959.63;5089571;28;1383;-29
2023/07/10 06:59:26;;;;;;;;;;;;;;;29.05;31.86;100966.44;5086749;28;1375;-27
2023/07/10 07:01:52;;;;;;;;;;;;;;;28.91;31.96;100955.44;5089464;28;1283;-30
2023/07/10 07:04:17;;;;;;;;;;;;;;;28.95;31.59;100954.03;5086842;28;1331;-30
2023/07/10 07:06:43;;;;;;;;;;;;;;;28.96;31.38;100953.00;5090026;28;1319;-27
2023/07/10 07:09:08;;;;;;;;;;;;;;;28.85;31.68;100946.22;5083963;28;1201;-30
2023/07/10 07:11:34;;;;;;;;;;;;;;;28.85;31.63;100942.66;5085208;28;1362;-29
2023/07/10 07:13:59;;;;;;;;;;;;;;;28.86;31.78;100941.66;5086314;28;1909;-30
2023/07/10 07:16:26;;;;;;;;;;;;;;;28.85;31.96;100943.50;5080935;28;1307;-31
2023/07/10 07:18:51;;;;;;;;;;;;;;;28.98;31.86;100939.28;5088792;28;1373;-28
2023/07/10 07:21:17;;;;;;;;;;;;;;;28.87;32.35;100943.31;5088053;28;1272;-27
2023/07/10 07:23:42;;;;;;;;;;;;;;;28.90;32.42;100942.09;5081990;28;1335;-28
2023/07/10 07:26:08;;;;;;;;;;;;;;;28.99;32.28;100948.25;5088806;28;1339;-28
2023/07/10 07:28:33;;;;;;;;;;;;;;;28.85;32.95;100939.94;5074521;28;1105;-30
2023/07/10 07:31:03;;;;;;;;;;;;;;;28.84;32.91;100938.28;5072407;28;1065;-29
2023/07/10 07:33:28;;;;;;;;;;;;;;;28.90;32.89;100945.63;5080235;28;1913;-28
2023/07/10 07:35:54;;;;;;;;;;;;;;;28.81;33.05;100927.84;5100847;28;1475;-32
2023/07/10 07:38:20;;;;;;;;;;;;;;;28.93;33.11;100934.44;5107368;28;1323;-30
2023/07/10 07:40:46;;;;;;;;;;;;;;;28.92;32.78;100915.66;5106458;28;925;-29
2023/07/10 07:43:11;;;;;;;;;;;;;;;28.81;32.54;100908.88;5093466;28;1134;-30
2023/07/10 07:45:37;;;;;;;;;;;;;;;28.95;32.75;100918.84;5083003;28;1075;-32
2023/07/10 07:48:02;;;;;;;;;;;;;;;28.88;32.93;100903.56;5080555;28;1098;-30
2023/07/10 07:50:28;;;;;;;;;;;;;;;28.91;32.66;100911.28;5093718;28;1292;-31
2023/07/10 07:52:54;;;;;;;;;;;;;;;28.86;32.01;100909.16;5090504;28;1909;-27
2023/07/10 07:55:19;;;;;;;;;;;;;;;28.98;31.86;100903.28;5072416;28;1292;-27
2023/07/10 07:57:45;;;;;;;;;;;;;;;28.96;31.07;100914.25;5087090;28;1336;-27
2023/07/10 08:00:10;;;;;;;;;;;;;;;28.82;32.60;100906.00;5087435;28;1351;-30
2023/07/10 08:02:38;;;;;;;;;;;;;;;28.88;32.78;100904.38;5087075;28;1316;-31
2023/07/10 08:05:04;;;;;;;;;;;;;;;28.92;32.39;100902.97;5083574;28;1367;-29
2023/07/10 08:07:30;;;;;;;;;;;;;;;28.85;33.25;100899.34;5094706;28;1316;-28
2023/07/10 08:09:55;;;;;;;;;;;;;;;28.83;33.26;100888.69;5091923;28;1320;-29
2023/07/10 08:12:21;;;;;;;;;;;;;;;28.91;31.79;100889.63;5087178;28;1276;-28
2023/07/10 08:14:46;;;;;;;;;;;;;;;28.93;30.45;100888.38;5087559;28;1981;-29
2023/07/10 08:17:12;;;;;;;;;;;;;;;29.07;31.02;100892.13;5078578;28;1221;-28
2023/07/10 08:19:38;;;;;;;;;;;;;;;29.06;32.23;100878.78;5078210;28;1245;-32
2023/07/10 08:22:03;;;;;;;;;;;;;;;29.00;32.62;100884.94;5078183;28;1133;-29
2023/07/10 08:24:29;;;;;;;;;;;;;;;29.00;33.53;100890.34;5091732;28;1162;-30
2023/07/10 08:26:55;;;;;;;;;;;;;;;29.09;32.51;100873.78;5079022;28;1063;-29
2023/07/10 08:29:24;;;;;;;;;;;;;;;29.12;32.04;100869.00;5097434;28;1276;-28
2023/07/10 08:31:49;;;;;;;;;;;;;;;29.02;33.12;100874.75;5085071;28;1106;-27
2023/07/10 08:34:15;;;;;;;;;;;;;;;28.97;32.59;100883.47;5077753;28;1902;-31
2023/07/10 08:36:40;;;;;;;;;;;;;;;28.90;33.02;100880.66;5077789;28;1014;-29
2023/07/10 08:39:06;;;;;;;;;;;;;;;28.90;33.14;100887.94;5078336;28;1074;-28
2023/07/10 08:41:31;;;;;;;;;;;;;;;29.02;32.53;100870.19;5078042;28;1054;-28
2023/07/10 08:43:57;;;;;;;;;;;;;;;29.04;31.77;100875.41;5061613;28;1150;-27
2023/07/10 08:46:23;;;;;;;;;;;;;;;28.87;31.33;100875.63;5098343;28;1157;-29
2023/07/10 08:48:56;;;;;;;;;;;;;;;28.89;31.97;100881.69;5065821;28;1089;-30
2023/07/10 08:51:22;;;;;;;;;;;;;;;28.80;33.02;100872.84;5077982;28;1132;-28
2023/07/10 08:53:57;;;;;;;;;;;;;;;28.84;33.15;100876.00;5083714;28;1902;-29
2023/07/10 08:56:28;;;;;;;;;;;;;;;28.83;33.01;100877.03;5069209;28;1514;-29
2023/07/10 08:58:57;;;;;;;;;;;;;;;28.89;33.42;100870.88;5093243;28;1371;-27
2023/07/10 09:01:30;;;;;;;;;;;;;;;28.66;32.91;100874.56;5067579;28;1399;-29
2023/07/10 09:03:58;;;;;;;;;;;;;;;28.93;32.13;100872.13;5073576;28;1174;-28
2023/07/10 09:06:44;;;;;;;;;;;;;;;28.74;31.77;100865.50;5080121;28;1315;-31
2023/07/10 09:09:33;;;;;;;;;;;;;;;29.06;31.09;100870.66;5079171;28;1019;-29
2023/07/10 09:12:00;;;;;;;;;;;;;;;28.89;31.94;100870.03;5071382;28;1195;-28
2023/07/10 09:14:45;;;;;;;;;;;;;;;28.99;32.73;100864.31;5076057;28;1987;-31
2023/07/10 09:17:14;;;;;;;;;;;;;;;28.93;32.65;100869.44;5089499;28;1583;-29
2023/07/10 09:19:40;;;;;;;;;;;;;;;28.81;32.64;100868.28;5079361;28;1019;-32
2023/07/10 09:22:08;;;;;;;;;;;;;;;28.63;32.50;100853.28;5065902;28;1327;-32
2023/07/10 09:24:33;;;;;;;;;;;;;;;28.83;32.28;100858.06;5065050;28;1387;-30
2023/07/10 09:26:59;;;;;;;;;;;;;;;28.72;32.11;100868.41;5091852;28;1224;-31
2023/07/10 09:29:25;;;;;;;;;;;;;;;28.72;32.65;100856.72;5090629;28;1335;-29
2023/07/10 09:31:54;;;;;;;;;;;;;;;29.11;31.87;100856.50;5064459;28;1332;-30
2023/07/10 09:34:20;;;;;;;;;;;;;;;28.84;32.51;100860.59;5076710;28;1971;-30
2023/07/10 09:36:49;;;;;;;;;;;;;;;28.81;31.85;100854.75;5085954;28;1328;-31
2023/07/10 09:39:15;;;;;;;;;;;;;;;28.84;32.60;100854.34;5095574;28;1295;-29
2023/07/10 09:41:41;;;;;;;;;;;;;;;28.79;32.35;100856.78;5058994;28;1321;-31
2023/07/10 09:44:15;;;;;;;;;;;;;;;28.71;32.49;100846.94;5061075;28;1397;-27
2023/07/10 09:46:40;;;;;;;;;;;;;;;28.83;31.63;100858.06;5078357;28;1379;-28
2023/07/10 09:49:16;;;;;;;;;;;;;;;28.67;32.01;100854.59;5082448;28;1063;-30
2023/07/10 09:51:54;;;;;;;;;;;;;;;28.92;32.27;100854.22;5058629;28;1171;-28
2023/07/10 09:54:19;;;;;;;;;;;;;;;28.99;31.84;100857.03;5086362;28;1910;-27
2023/07/10 09:56:45;;;;;;;;;;;;;;;29.19;32.44;100842.84;5080110;28;1026;-30
2023/07/10 09:59:30;;;;;;;;;;;;;;;29.07;31.82;100831.69;5067955;28;1322;-28
2023/07/10 10:01:56;;;;;;;;;;;;;;;29.03;31.05;100838.53;5082004;28;1083;-28
2023/07/10 10:04:31;;;;;;;;;;;;;;;29.10;30.49;100839.41;5096486;28;1010;-30
2023/07/10 10:07:00;;;;;;;;;;;;;;;29.02;31.93;100840.41;5076398;28;972;-28
2023/07/10 10:09:28;;;;;;;;;;;;;;;28.76;32.78;100832.81;5076003;28;1059;-31
2023/07/10 10:11:55;;;;;;;;;;;;;;;28.82;31.34;100834.75;5076166;28;1121;-28
2023/07/10 10:14:26;;;;;;;;;;;;;;;28.97;31.97;100840.13;5058389;28;2013;-28
2023/07/10 10:16:55;;;;;;;;;;;;;;;28.66;33.21;100838.56;5066595;28;1309;-29
2023/07/10 10:19:21;;;;;;;;;;;;;;;28.58;32.69;100832.22;5066533;28;1028;-32
2023/07/10 10:21:46;;;;;;;;;;;;;;;28.61;33.04;100822.88;5076166;28;1020;-28
2023/07/10 10:24:12;;;;;;;;;;;;;;;28.66;32.88;100823.13;5077835;28;1034;-30
2023/07/10 10:26:41;;;;;;;;;;;;;;;28.80;32.31;100818.69;5091258;28;1182;-28
2023/07/10 10:29:09;;;;;;;;;;;;;;;28.77;32.13;100816.38;5095369;28;1150;-28
2023/07/10 10:31:39;;;;;;;;;;;;;;;28.65;32.29;100815.19;5061867;28;1019;-30
2023/07/10 10:34:24;;;;;;;;;;;;;;;28.83;32.62;100825.59;5094534;28;1902;-31
2023/07/10 10:36:52;;;;;;;;;;;;;;;29.36;32.78;100824.44;5075820;28;1166;-27
2023/07/10 10:39:36;;;;;;;;;;;;;;;29.80;32.22;100814.31;5088676;28;1118;-29
2023/07/10 10:42:03;;;;;;;;;;;;;;;29.64;32.33;100801.09;5074288;28;1240;-29
2023/07/10 10:44:44;;;;;;;;;;;;;;;29.69;35.33;100812.16;5058203;28;1120;-29
2023/07/10 10:47:13;;;;;;;;;;;;;;;29.75;35.77;100788.84;5061435;28;1091;-30
2023/07/10 10:49:50;;;;;;;;;;;;;;;29.74;35.76;100781.75;5093678;28;850;-27
2023/07/10 10:52:35;;;;;;;;;;;;;;;29.76;35.40;100774.25;5059099;28;1143;-28
2023/07/10 10:55:19;;;;;;;;;;;;;;;29.87;34.61;100786.41;5091076;28;1971;-29
2023/07/10 10:57:50;;;;;;;;;;;;;;;29.97;33.05;100788.72;5092162;28;1408;-30
2023/07/10 11:00:34;;;;;;;;;;;;;;;30.06;32.00;100771.25;5087829;28;1269;-28
2023/07/10 11:03:00;;;;;;;;;;;;;;;29.95;31.49;100786.22;5084393;28;1205;-28
2023/07/10 11:05:25;;;;;;;;;;;;;;;30.04;31.53;100786.91;5090506;28;1324;-27
2023/07/10 11:07:52;;;;;;;;;;;;;;;30.19;31.24;100771.31;5096006;28;1324;-27
2023/07/10 11:10:33;;;;;;;;;;;;;;;30.13;31.18;100790.28;5077088;28;1114;-31
2023/07/10 11:12:59;;;;;;;;;;;;;;;30.34;31.08;100780.34;5060290;28;1976;-31
2023/07/10 11:15:24;;;;;;;;;;;;;;;30.28;30.85;100790.97;5076191;28;1078;-30
2023/07/10 11:17:51;;;;;;;;;;;;;;;30.26;30.36;100779.47;5073623;28;1134;-33
2023/07/10 11:20:16;;;;;;;;;;;;;;;30.19;30.22;100771.31;5089402;28;1323;-28
2023/07/10 11:22:57;;;;;;;;;;;;;;;30.27;29.84;100769.47;5063935;28;1356;-28
2023/07/10 11:25:35;;;;;;;;;;;;;;;30.33;29.48;100756.97;5084709;28;1546;-30
2023/07/10 11:28:01;;;;;;;;;;;;;;;30.36;29.51;100767.41;5087222;28;1280;-28
2023/07/10 11:30:31;;;;;;;;;;;;;;;30.28;29.90;100738.59;5091246;28;1296;-28
2023/07/10 11:32:57;;;;;;;;;;;;;;;30.03;29.85;100736.41;5088094;28;2011;-28
2023/07/10 11:35:23;;;;;;;;;;;;;;;29.93;29.26;100747.63;5073949;28;1034;-31
2023/07/10 11:37:48;;;;;;;;;;;;;;;29.81;29.64;100737.34;5066119;28;1008;-30
2023/07/10 11:40:26;;;;;;;;;;;;;;;29.89;29.65;100738.22;5079293;28;1193;-27
2023/07/10 11:42:51;;;;;;;;;;;;;;;29.77;29.89;100730.69;5078501;28;1237;-30
2023/07/10 11:45:17;;;;;;;;;;;;;;;29.82;30.08;100733.63;5079225;28;1118;-29
2023/07/10 11:47:46;;;;;;;;;;;;;;;29.84;30.61;100722.56;5079986;28;1340;-26
2023/07/10 11:50:13;;;;;;;;;;;;;;;29.77;30.87;100735.25;5096214;28;1063;-26
2023/07/10 11:52:39;;;;;;;;;;;;;;;29.87;30.28;100733.00;5093682;28;1496;-29
2023/07/10 11:55:06;;;;;;;;;;;;;;;29.60;30.81;100732.88;5085583;28;1320;-31
2023/07/10 11:57:35;;;;;;;;;;;;;;;29.77;30.64;100730.69;5084450;28;1182;-30
2023/07/10 12:00:12;;;;;;;;;;;;;;;29.65;30.71;100722.28;5089043;28;1105;-31
2023/07/10 12:02:51;;;;;;;;;;;;;;;29.72;30.77;100716.03;5086121;28;1012;-29
2023/07/10 12:05:23;;;;;;;;;;;;;;;29.54;31.61;100718.25;5098357;28;1308;-29
2023/07/10 12:08:08;;;;;;;;;;;;;;;29.74;31.62;100708.53;5098657;28;1205;-27
2023/07/10 12:10:45;;;;;;;;;;;;;;;29.66;30.83;100702.25;5091172;28;1246;-27
2023/07/10 12:13:21;;;;;;;;;;;;;;;29.58;31.79;100703.22;5096593;28;1902;-27
2023/07/10 12:15:47;;;;;;;;;;;;;;;29.63;31.89;100702.66;5095523;28;1119;-28
2023/07/10 12:18:20;;;;;;;;;;;;;;;29.72;31.75;100697.91;5080155;28;1246;-27
2023/07/10 12:20:48;;;;;;;;;;;;;;;29.63;32.01;100699.13;5080327;28;1325;-30
2023/07/10 12:23:14;;;;;;;;;;;;;;;29.63;32.03;100694.53;5098570;28;1209;-28
2023/07/10 12:25:46;;;;;;;;;;;;;;;29.75;31.34;100700.22;5094908;28;1366;-30
2023/07/10 12:28:12;;;;;;;;;;;;;;;29.83;31.22;100704.59;5098426;28;1154;-30
2023/07/10 12:30:38;;;;;;;;;;;;;;;29.80;31.26;100703.16;5098482;28;1273;-27
2023/07/10 12:33:04;;;;;;;;;;;;;;;29.84;31.34;100708.16;5067802;28;1902;-30
2023/07/10 12:35:30;;;;;;;;;;;;;;;29.87;30.88;100711.31;5059834;28;2771;-29
2023/07/10 12:37:57;;;;;;;;;;;;;;;29.82;31.71;100709.22;5062616;28;2143;-27
2023/07/10 12:40:22;;;;;;;;;;;;;;;29.84;32.23;100700.88;5064434;28;2114;-30
2023/07/10 12:42:48;;;;;;;;;;;;;;;29.86;31.11;100712.38;5081997;28;2119;-29
2023/07/10 12:45:27;;;;;;;;;;;;;;;29.94;31.64;100714.06;5091320;28;2184;-29
2023/07/10 12:47:54;;;;;;;;;;;;;;;29.92;32.37;100708.00;5086702;28;2301;-30
2023/07/10 12:50:21;;;;;;;;;;;;;;;29.87;31.63;100719.44;5083990;28;2284;-28
2023/07/10 12:52:46;;;;;;;;;;;;;;;29.85;32.20;100713.38;5086723;28;2245;-29